Terminal Aerodrome Forecast
Issued by NWS

Home | Current Version | Previous Version | Text Only | Print | Product List | Glossary On
Versions: 1 2 3 4 5 6 7 8 9 10 11 12 13 14 15 16 17 18 19 20 21 22 23 24 25 26
000
FTUS41 KBOX 292330
TAFBED
TAF
KBED 292330Z 3000/3024 00000KT P6SM BKN120
     FM300500 15004KT P6SM OVC025
     FM300700 15004KT 3SM -SN OVC010
     FM301000 15004KT 1SM -SN OVC008
     FM301500 VRB04KT 1SM -SN OVC005
     FM302000 31006KT 2SM -SN OVC008=

USA.gov is the U.S. government's official web portal to all federal, state and local government web resources and services.